createdAt,value
2018-09-08T00:01:53.440Z,2.67
2018-09-08T00:04:22.736Z,3.10
2018-09-08T00:06:57.156Z,2.87
2018-09-08T00:09:26.256Z,2.83
2018-09-08T00:11:55.231Z,2.53
2018-09-08T00:14:24.252Z,2.87
2018-09-08T00:16:58.812Z,2.80
2018-09-08T00:19:33.241Z,2.17
2018-09-08T00:22:07.577Z,2.50
2018-09-08T00:24:41.864Z,2.50
2018-09-08T00:27:10.102Z,2.40
2018-09-08T00:29:54.544Z,2.00
2018-09-08T00:32:24.325Z,2.30
2018-09-08T00:34:53.298Z,2.43
2018-09-08T00:37:22.396Z,2.90
2018-09-08T00:39:52.048Z,2.10
2018-09-08T00:42:21.045Z,1.93
2018-09-08T00:44:50.058Z,1.90
2018-09-08T00:47:19.324Z,2.17
2018-09-08T00:49:48.311Z,2.20
2018-09-08T00:52:17.310Z,2.20
2018-09-08T00:54:46.503Z,2.03
2018-09-08T00:57:15.518Z,1.87
2018-09-08T00:59:44.521Z,1.90
2018-09-08T01:02:13.537Z,2.00
2018-09-08T01:04:42.520Z,1.90
2018-09-08T01:07:16.745Z,2.13
2018-09-08T01:09:45.737Z,2.50
2018-09-08T01:12:14.720Z,2.13
2018-09-08T01:14:43.755Z,2.10
2018-09-08T01:17:12.749Z,2.00
2018-09-08T01:19:41.768Z,2.03
2018-09-08T01:22:10.803Z,2.00
2018-09-08T01:24:39.809Z,2.00
2018-09-08T01:27:08.749Z,2.07
2018-09-08T01:29:37.768Z,1.80
2018-09-08T01:32:07.127Z,1.90
2018-09-08T01:34:36.412Z,1.90
2018-09-08T01:37:05.451Z,2.30
2018-09-08T01:39:34.565Z,2.00
2018-09-08T01:42:03.548Z,1.97
2018-09-08T01:44:32.581Z,1.90
2018-09-08T01:47:01.628Z,2.17
2018-09-08T01:49:30.674Z,1.97
2018-09-08T01:51:59.702Z,1.90
2018-09-08T01:54:28.667Z,2.33
2018-09-08T01:56:57.688Z,1.90
2018-09-08T01:59:26.722Z,1.80
2018-09-08T02:01:55.975Z,2.10
2018-09-08T02:04:24.936Z,2.10
2018-09-08T02:06:53.904Z,2.17
2018-09-08T02:09:22.924Z,2.67
2018-09-08T02:11:51.913Z,1.93
2018-09-08T02:14:20.941Z,1.93
2018-09-08T02:16:49.970Z,2.03
2018-09-08T02:19:18.977Z,2.50
2018-09-08T02:21:47.975Z,2.17
2018-09-08T02:24:16.957Z,2.10
2018-09-08T02:26:45.932Z,1.83
2018-09-08T02:29:14.964Z,2.40
2018-09-08T02:31:43.985Z,2.13
2018-09-08T02:34:13.309Z,2.10
2018-09-08T02:36:42.301Z,2.10
2018-09-08T02:39:11.287Z,2.30
2018-09-08T02:41:40.343Z,2.10
2018-09-08T02:44:09.806Z,2.33
2018-09-08T02:46:38.944Z,2.37
2018-09-08T02:49:07.912Z,2.00
2018-09-08T02:51:35.799Z,2.40
2018-09-08T02:54:03.717Z,2.10
2018-09-08T02:56:31.632Z,2.40
2018-09-08T02:58:59.519Z,2.50
2018-09-08T03:01:27.440Z,2.30
2018-09-08T03:03:55.324Z,2.60
2018-09-08T03:06:23.228Z,2.27
2018-09-08T03:08:51.124Z,1.93
2018-09-08T03:11:19.025Z,2.27
2018-09-08T03:13:46.903Z,2.00
2018-09-08T03:16:14.813Z,2.83
2018-09-08T03:18:42.683Z,2.73
2018-09-08T03:21:10.570Z,2.10
2018-09-08T03:23:38.471Z,2.17
2018-09-08T03:26:06.347Z,2.10
2018-09-08T03:28:34.548Z,2.60
2018-09-08T03:31:02.450Z,2.43
2018-09-08T03:33:30.329Z,2.17
2018-09-08T03:35:58.313Z,2.13
2018-09-08T03:38:26.176Z,1.90
2018-09-08T03:40:54.083Z,2.17
2018-09-08T03:43:21.960Z,1.60
2018-09-08T03:45:50.229Z,2.30
2018-09-08T03:48:18.125Z,1.70
2018-09-08T03:50:46.021Z,2.20
2018-09-08T03:53:13.941Z,2.30
2018-09-08T03:55:41.845Z,2.53
2018-09-08T03:58:09.732Z,2.10
2018-09-08T04:00:37.641Z,2.13
2018-09-08T04:03:06.633Z,2.10
2018-09-08T04:05:35.841Z,2.17
2018-09-08T04:08:04.848Z,2.27
2018-09-08T04:10:33.850Z,2.17
2018-09-08T04:13:02.813Z,2.27
2018-09-08T04:15:31.829Z,2.10
2018-09-08T04:18:00.816Z,2.60
2018-09-08T04:20:29.785Z,2.60
2018-09-08T04:22:58.820Z,2.70
2018-09-08T04:25:27.812Z,2.70
2018-09-08T04:27:56.810Z,2.50
2018-09-08T04:30:25.799Z,2.80
2018-09-08T04:32:54.818Z,2.57
2018-09-08T04:35:23.843Z,2.90
2018-09-08T04:37:53.131Z,2.67
2018-09-08T04:40:22.137Z,2.67
2018-09-08T04:42:51.145Z,2.80
2018-09-08T04:45:20.182Z,2.77
2018-09-08T04:47:49.171Z,3.10
2018-09-08T04:50:18.267Z,2.70
2018-09-08T04:52:47.269Z,2.67
2018-09-08T04:55:16.293Z,2.77
2018-09-08T04:57:45.284Z,3.00
2018-09-08T05:00:14.289Z,2.93
2018-09-08T05:02:43.305Z,3.07
2018-09-08T05:05:12.304Z,3.00
2018-09-08T05:07:41.380Z,3.30
2018-09-08T05:10:10.368Z,3.07
2018-09-08T05:12:39.373Z,2.83
2018-09-08T05:15:08.397Z,3.07
2018-09-08T05:17:37.524Z,3.10
2018-09-08T05:20:06.809Z,3.80
2018-09-08T05:22:35.817Z,2.70
2018-09-08T05:25:04.878Z,2.77
2018-09-08T05:27:34.168Z,3.00
2018-09-08T05:30:03.291Z,2.77
2018-09-08T05:32:32.301Z,2.83
2018-09-08T05:35:01.384Z,3.00
2018-09-08T05:37:30.267Z,2.93
2018-09-08T05:39:59.294Z,2.60
2018-09-08T05:42:28.311Z,2.77
2018-09-08T05:44:57.329Z,2.57
2018-09-08T05:47:26.328Z,2.80
2018-09-08T05:49:55.708Z,3.33
2018-09-08T05:52:24.761Z,2.70
2018-09-08T05:54:53.763Z,2.70
2018-09-08T05:57:22.788Z,2.93
2018-09-08T05:59:51.881Z,2.53
2018-09-08T06:02:20.990Z,2.70
2018-09-08T06:04:49.972Z,2.70
2018-09-08T06:07:19.105Z,2.73
2018-09-08T06:09:48.045Z,2.50
2018-09-08T06:12:17.048Z,2.40
2018-09-08T06:14:46.072Z,2.33
2018-09-08T06:17:15.038Z,2.53
2018-09-08T06:19:44.204Z,2.40
2018-09-08T06:22:13.182Z,2.53
2018-09-08T06:24:42.256Z,2.50
2018-09-08T06:27:11.244Z,2.57
2018-09-08T06:29:40.312Z,3.17
2018-09-08T06:32:09.315Z,2.50
2018-09-08T06:34:38.329Z,2.83
2018-09-08T06:37:07.292Z,2.50
2018-09-08T06:39:36.341Z,2.60
2018-09-08T06:42:05.396Z,2.50
2018-09-08T06:44:34.392Z,2.37
2018-09-08T06:47:03.420Z,2.30
2018-09-08T06:49:32.469Z,2.70
2018-09-08T06:52:01.502Z,2.50
2018-09-08T06:54:30.476Z,2.67
2018-09-08T06:56:59.528Z,2.40
2018-09-08T06:59:28.490Z,2.33
2018-09-08T07:01:57.497Z,2.50
2018-09-08T07:04:26.520Z,2.70
2018-09-08T07:06:55.792Z,2.00
2018-09-08T07:09:24.799Z,2.20
2018-09-08T07:11:53.807Z,2.37
2018-09-08T07:14:22.840Z,2.40
2018-09-08T07:16:51.804Z,2.40
2018-09-08T07:19:20.840Z,2.50
2018-09-08T07:21:49.864Z,2.10
2018-09-08T07:24:18.920Z,1.70
2018-09-08T07:26:47.925Z,2.37
2018-09-08T07:29:16.940Z,1.67
2018-09-08T07:31:45.952Z,2.10
2018-09-08T07:34:14.944Z,1.75
2018-09-08T07:36:43.968Z,1.98
2018-09-08T07:39:12.943Z,1.85
2018-09-08T07:41:41.954Z,2.10
2018-09-08T07:44:10.944Z,1.87
2018-09-08T07:46:39.975Z,1.85
2018-09-08T07:49:08.968Z,1.52
2018-09-08T07:51:38.004Z,1.70
2018-09-08T07:54:07.178Z,1.80
2018-09-08T07:56:36.604Z,2.00
2018-09-08T07:59:06.116Z,1.90
2018-09-08T08:01:35.228Z,1.65
2018-09-08T08:04:04.262Z,1.60
2018-09-08T08:06:33.420Z,1.70
2018-09-08T08:09:02.456Z,1.67
2018-09-08T08:11:31.473Z,1.90
2018-09-08T08:14:00.468Z,1.77
2018-09-08T08:16:29.491Z,1.60
2018-09-08T08:18:58.476Z,1.65
2018-09-08T08:21:27.505Z,1.62
2018-09-08T08:23:56.552Z,1.80
2018-09-08T08:26:25.629Z,1.65
2018-09-08T08:28:54.700Z,1.30
2018-09-08T08:31:23.722Z,1.60
2018-09-08T08:33:52.816Z,1.52
2018-09-08T08:36:21.873Z,1.40
2018-09-08T08:38:50.908Z,1.65
2018-09-08T08:41:19.965Z,1.50
2018-09-08T08:43:49.076Z,1.40
2018-09-08T08:46:18.082Z,1.35
2018-09-08T08:48:47.114Z,1.50
2018-09-08T08:51:27.755Z,1.60
2018-09-08T08:54:08.041Z,1.60
2018-09-08T08:56:37.152Z,1.32
2018-09-08T08:59:06.139Z,1.37
2018-09-08T09:01:36.051Z,1.87
2018-09-08T09:04:05.073Z,1.45
2018-09-08T09:06:34.800Z,1.40
2018-09-08T09:09:05.423Z,1.30
2018-09-08T09:11:34.441Z,1.40
2018-09-08T09:14:03.483Z,1.37
2018-09-08T09:16:32.468Z,1.20
2018-09-08T09:19:25.798Z,1.35
2018-09-08T09:22:06.640Z,1.30
2018-09-08T09:25:04.273Z,1.47
2018-09-08T09:27:34.537Z,1.67
2018-09-08T09:30:03.833Z,1.50
2018-09-08T09:32:33.277Z,1.90
2018-09-08T09:35:02.277Z,1.30
2018-09-08T09:37:31.240Z,1.57
2018-09-08T09:40:00.769Z,1.45
2018-09-08T09:42:29.733Z,1.35
2018-09-08T09:44:58.729Z,1.80
2018-09-08T09:47:27.692Z,1.52
2018-09-08T09:49:57.133Z,1.62
2018-09-08T09:52:26.096Z,1.60
2018-09-08T09:54:55.062Z,1.72
2018-09-08T09:57:24.174Z,1.42
2018-09-08T09:59:53.178Z,1.30
2018-09-08T10:02:52.632Z,1.55
2018-09-08T10:05:23.486Z,1.60
2018-09-08T10:07:53.459Z,1.42
2018-09-08T10:10:23.864Z,1.75
2018-09-08T10:12:52.992Z,1.67
2018-09-08T10:15:22.011Z,1.85
2018-09-08T10:17:51.053Z,1.50
2018-09-08T10:20:21.421Z,1.70
2018-09-08T10:22:50.488Z,1.55
2018-09-08T10:25:20.065Z,1.50
2018-09-08T10:27:49.497Z,1.25
2018-09-08T10:30:18.690Z,1.70
2018-09-08T10:32:47.995Z,1.60
2018-09-08T10:35:17.012Z,1.60
2018-09-08T10:37:45.959Z,1.92
2018-09-08T10:40:15.028Z,2.08
2018-09-08T10:42:43.980Z,1.55
2018-09-08T10:45:13.008Z,1.80
2018-09-08T10:47:42.060Z,1.57
2018-09-08T10:50:11.810Z,1.40
2018-09-08T10:52:42.920Z,1.47
2018-09-08T10:55:11.973Z,1.40
2018-09-08T10:57:40.980Z,1.72
2018-09-08T11:00:10.910Z,1.57
2018-09-08T11:02:40.249Z,1.40
2018-09-08T11:05:09.216Z,1.57
2018-09-08T11:07:38.184Z,1.22
2018-09-08T11:10:07.216Z,1.77
2018-09-08T11:12:36.341Z,1.65
2018-09-08T11:15:06.213Z,1.50
2018-09-08T11:17:35.202Z,1.60
2018-09-08T11:20:04.408Z,1.50
2018-09-08T11:22:33.441Z,1.47
2018-09-08T11:25:02.464Z,1.60
2018-09-08T11:27:31.501Z,1.20
2018-09-08T11:30:00.564Z,1.32
2018-09-08T11:32:29.579Z,1.20
2018-09-08T11:34:58.528Z,1.70
2018-09-08T11:37:27.492Z,1.37
2018-09-08T11:39:56.605Z,1.70
2018-09-08T11:42:25.593Z,1.72
2018-09-08T11:44:54.729Z,1.17
2018-09-08T11:47:23.606Z,1.47
2018-09-08T11:49:52.684Z,1.50
2018-09-08T11:52:21.649Z,1.60
2018-09-08T11:54:50.693Z,1.70
2018-09-08T11:57:19.802Z,1.60
2018-09-08T11:59:49.109Z,1.37
2018-09-08T12:02:18.161Z,1.20
2018-09-08T12:04:47.127Z,1.52
2018-09-08T12:07:16.143Z,1.45
2018-09-08T12:09:45.132Z,1.37
2018-09-08T12:12:14.130Z,1.27
2018-09-08T12:14:43.122Z,1.57
2018-09-08T12:17:12.152Z,1.45
2018-09-08T12:19:41.124Z,1.47
2018-09-08T12:22:10.160Z,1.20
2018-09-08T12:24:39.176Z,1.30
2018-09-08T12:27:08.169Z,1.52
2018-09-08T12:29:37.171Z,1.60
2018-09-08T12:32:06.294Z,1.60
2018-09-08T12:34:35.329Z,1.85
2018-09-08T12:37:04.332Z,1.72
2018-09-08T12:39:33.336Z,1.62
2018-09-08T12:42:02.434Z,1.20
2018-09-08T12:44:31.744Z,1.70
2018-09-08T12:47:00.715Z,1.40
2018-09-08T12:49:29.702Z,1.40
2018-09-08T12:51:58.745Z,1.50
2018-09-08T12:54:27.769Z,1.62
2018-09-08T12:56:57.016Z,1.70
2018-09-08T12:59:26.001Z,1.47
2018-09-08T13:01:54.964Z,1.37
2018-09-08T13:04:24.103Z,1.52
2018-09-08T13:06:53.068Z,1.62
2018-09-08T13:09:22.117Z,1.50
2018-09-08T13:11:51.117Z,1.57
2018-09-08T13:14:20.187Z,1.60
2018-09-08T13:16:49.532Z,1.45
2018-09-08T13:19:18.512Z,1.50
2018-09-08T13:21:47.560Z,1.60
2018-09-08T13:24:16.587Z,1.50
2018-09-08T13:26:45.655Z,1.70
2018-09-08T13:29:14.710Z,1.55
2018-09-08T13:31:43.704Z,1.40
2018-09-08T13:34:12.704Z,1.65
2018-09-08T13:36:41.722Z,1.40
2018-09-08T13:39:10.723Z,1.50
2018-09-08T13:41:42.588Z,1.50
2018-09-08T13:44:11.632Z,1.52
2018-09-08T13:46:40.628Z,1.45
2018-09-08T13:49:09.591Z,1.70
2018-09-08T13:51:38.789Z,1.35
2018-09-08T13:54:07.841Z,1.30
2018-09-08T13:56:36.863Z,1.50
2018-09-08T13:59:05.917Z,1.57
2018-09-08T14:01:34.900Z,1.52
2018-09-08T14:04:04.274Z,1.30
2018-09-08T14:06:33.285Z,1.30
2018-09-08T14:09:02.305Z,1.42
2018-09-08T14:11:31.317Z,1.32
2018-09-08T14:14:00.381Z,1.55
2018-09-08T14:16:29.336Z,1.32
2018-09-08T14:18:58.391Z,1.27
2018-09-08T14:21:27.398Z,1.25
2018-09-08T14:23:56.336Z,1.40
2018-09-08T14:26:25.371Z,1.40
2018-09-08T14:28:54.353Z,1.47
2018-09-08T14:31:23.418Z,1.60
2018-09-08T14:33:52.544Z,1.50
2018-09-08T14:36:21.564Z,1.45
2018-09-08T14:38:50.660Z,1.50
2018-09-08T14:41:19.680Z,1.57
2018-09-08T14:43:48.749Z,1.45
2018-09-08T14:46:17.782Z,1.30
2018-09-08T14:48:46.855Z,1.50
2018-09-08T14:51:15.833Z,1.40
2018-09-08T14:53:44.910Z,1.40
2018-09-08T14:56:13.880Z,1.45
2018-09-08T14:58:43.005Z,1.50
2018-09-08T15:01:12.005Z,1.10
2018-09-08T15:03:41.054Z,1.25
2018-09-08T15:06:10.072Z,1.15
2018-09-08T15:08:39.065Z,1.47
2018-09-08T15:11:08.097Z,1.52
2018-09-08T15:13:37.112Z,1.40
2018-09-08T15:16:06.204Z,1.17
2018-09-08T15:18:35.248Z,1.30
2018-09-08T15:21:04.313Z,1.12
2018-09-08T15:23:33.268Z,1.17
2018-09-08T15:26:02.268Z,1.30
2018-09-08T15:28:31.485Z,1.40
2018-09-08T15:31:00.772Z,1.42
2018-09-08T15:33:29.772Z,1.45
2018-09-08T15:35:58.776Z,1.40
2018-09-08T15:38:27.832Z,1.10
2018-09-08T15:40:57.132Z,1.32
2018-09-08T15:43:26.262Z,1.40
2018-09-08T15:45:55.321Z,1.22
2018-09-08T15:48:24.319Z,1.35
2018-09-08T15:50:53.351Z,1.82
2018-09-08T15:53:22.487Z,1.40
2018-09-08T15:55:51.476Z,1.52
2018-09-08T15:58:20.586Z,1.67
2018-09-08T16:00:49.489Z,1.90
2018-09-08T16:03:18.500Z,1.57
2018-09-08T16:05:47.490Z,1.45
2018-09-08T16:08:16.657Z,1.92
2018-09-08T16:10:45.655Z,1.50
2018-09-08T16:13:14.608Z,1.57
2018-09-08T16:15:43.643Z,1.47
2018-09-08T16:18:12.809Z,1.57
2018-09-08T16:20:41.821Z,2.03
2018-09-08T16:23:10.795Z,1.77
2018-09-08T16:25:40.489Z,1.60
2018-09-08T16:28:09.442Z,1.53
2018-09-08T16:30:38.432Z,1.60
2018-09-08T16:33:07.496Z,1.60
2018-09-08T16:35:37.129Z,2.00
2018-09-08T16:38:12.628Z,2.30
2018-09-08T16:40:41.600Z,2.13
2018-09-08T16:43:10.588Z,2.33
2018-09-08T16:45:39.700Z,1.77
2018-09-08T16:48:08.763Z,1.80
2018-09-08T16:50:37.791Z,1.50
2018-09-08T16:53:07.344Z,1.30
2018-09-08T16:55:36.328Z,1.20
2018-09-08T16:58:05.413Z,1.47
2018-09-08T17:00:34.569Z,1.60
2018-09-08T17:03:03.578Z,1.30
2018-09-08T17:05:32.768Z,1.40
2018-09-08T17:08:01.997Z,1.13
2018-09-08T17:10:31.001Z,1.40
2018-09-08T17:13:00.339Z,1.50
2018-09-08T17:15:29.408Z,1.40
2018-09-08T17:17:58.405Z,1.50
2018-09-08T17:20:27.371Z,1.17
2018-09-08T17:22:56.744Z,1.60
2018-09-08T17:25:25.847Z,1.90
2018-09-08T17:27:54.970Z,1.90
2018-09-08T17:30:24.165Z,1.70
2018-09-08T17:32:53.186Z,1.40
2018-09-08T17:35:22.303Z,1.60
2018-09-08T17:37:51.693Z,1.40
2018-09-08T17:40:20.770Z,1.53
2018-09-08T17:42:49.861Z,1.57
2018-09-08T17:45:19.345Z,1.43
2018-09-08T17:47:48.344Z,1.45
2018-09-08T17:50:17.404Z,1.53
2018-09-08T17:52:46.614Z,1.70
2018-09-08T17:55:15.640Z,2.43
2018-09-08T17:57:44.670Z,2.07
2018-09-08T18:00:14.090Z,1.67
2018-09-08T18:02:43.504Z,1.70
2018-09-08T18:05:12.544Z,1.47
2018-09-08T18:07:41.672Z,1.33
2018-09-08T18:10:10.766Z,1.40
2018-09-08T18:12:40.155Z,1.60
2018-09-08T18:15:09.685Z,1.57
2018-09-08T18:17:38.740Z,1.43
2018-09-08T18:20:07.873Z,1.57
2018-09-08T18:22:37.519Z,1.60
2018-09-08T18:25:06.788Z,1.70
2018-09-08T18:27:35.929Z,1.70
2018-09-08T18:30:05.078Z,1.50
2018-09-08T18:32:34.117Z,2.00
2018-09-08T18:35:03.315Z,1.77
2018-09-08T18:37:32.270Z,1.50
2018-09-08T18:40:01.264Z,1.43
2018-09-08T18:42:30.694Z,1.53
2018-09-08T18:44:59.686Z,1.80
2018-09-08T18:47:28.810Z,1.40
2018-09-08T18:49:57.840Z,1.17
2018-09-08T18:52:26.914Z,1.50
2018-09-08T18:54:55.908Z,1.60
2018-09-08T18:57:25.014Z,2.17
2018-09-08T18:59:54.016Z,2.10
2018-09-08T19:02:23.002Z,2.33
2018-09-08T19:04:52.556Z,1.77
2018-09-08T19:07:21.627Z,1.60
2018-09-08T19:09:55.017Z,1.70
2018-09-08T19:12:24.084Z,2.00
2018-09-08T19:14:59.047Z,2.63
2018-09-08T19:17:28.332Z,2.50
2018-09-08T19:20:02.945Z,2.70
2018-09-08T19:22:31.899Z,2.90
2018-09-08T19:25:00.877Z,3.03
2018-09-08T19:27:30.249Z,2.87
2018-09-08T19:30:02.249Z,2.90
2018-09-08T19:32:31.406Z,2.70
2018-09-08T19:35:05.715Z,1.87
2018-09-08T19:37:35.851Z,2.23
2018-09-08T19:40:09.568Z,2.33
2018-09-08T19:42:38.584Z,2.43
2018-09-08T19:45:08.112Z,2.80
2018-09-08T19:47:42.631Z,2.40
2018-09-08T19:50:11.665Z,2.50
2018-09-08T19:52:46.295Z,3.13
2018-09-08T19:55:15.302Z,3.40
2018-09-08T19:57:49.867Z,3.10
2018-09-08T20:00:18.860Z,2.90
2018-09-08T20:02:47.860Z,2.73
2018-09-08T20:05:16.932Z,2.63
2018-09-08T20:07:45.948Z,3.03
2018-09-08T20:10:14.956Z,2.93
2018-09-08T20:12:44.385Z,2.83
2018-09-08T20:15:13.370Z,3.10
2018-09-08T20:17:42.517Z,3.00
2018-09-08T20:20:11.564Z,2.80
2018-09-08T20:22:40.538Z,2.90
2018-09-08T20:25:09.562Z,3.00
2018-09-08T20:27:38.733Z,2.67
2018-09-08T20:30:08.621Z,3.67
2018-09-08T20:32:37.677Z,2.90
2018-09-08T20:35:07.095Z,3.00
2018-09-08T20:37:36.049Z,2.97
2018-09-08T20:40:05.290Z,3.27
2018-09-08T20:42:34.821Z,3.23
2018-09-08T20:45:03.816Z,2.80
2018-09-08T20:47:32.834Z,2.70
2018-09-08T20:50:01.972Z,3.13
2018-09-08T20:52:30.927Z,2.80
2018-09-08T20:55:00.059Z,2.80
2018-09-08T20:57:29.084Z,3.23
2018-09-08T20:59:58.142Z,3.50
2018-09-08T21:02:27.149Z,3.40
2018-09-08T21:04:56.282Z,3.27
2018-09-08T21:07:25.326Z,3.10
2018-09-08T21:09:54.376Z,3.27
2018-09-08T21:12:23.537Z,3.10
2018-09-08T21:14:52.536Z,4.13
2018-09-08T21:17:21.519Z,4.17
2018-09-08T21:19:50.593Z,5.63
2018-09-08T21:22:19.709Z,3.90
2018-09-08T21:24:48.750Z,4.20
2018-09-08T21:27:18.129Z,4.33
2018-09-08T21:29:47.482Z,4.73
2018-09-08T21:32:16.552Z,4.97
2018-09-08T21:34:45.702Z,4.77
2018-09-08T21:37:15.134Z,4.87
2018-09-08T21:39:44.225Z,5.60
2018-09-08T21:42:13.232Z,5.73
2018-09-08T21:44:42.297Z,5.87
2018-09-08T21:47:11.300Z,4.97
2018-09-08T21:49:40.344Z,6.27
2018-09-08T21:52:10.897Z,5.80
2018-09-08T21:54:39.867Z,5.40
2018-09-08T21:57:08.885Z,4.77
2018-09-08T21:59:38.027Z,5.00
2018-09-08T22:02:07.056Z,5.40
2018-09-08T22:04:36.073Z,5.57
2018-09-08T22:07:05.337Z,5.37
2018-09-08T22:09:34.426Z,5.60
2018-09-08T22:12:03.464Z,4.80
2018-09-08T22:14:32.648Z,5.43
2018-09-08T22:17:01.698Z,5.10
2018-09-08T22:19:30.772Z,5.00
2018-09-08T22:21:59.906Z,5.53
2018-09-08T22:24:28.884Z,5.10
2018-09-08T22:26:57.907Z,5.10
2018-09-08T22:29:27.772Z,4.50
2018-09-08T22:31:56.905Z,4.60
2018-09-08T22:34:25.902Z,4.67
2018-09-08T22:36:55.014Z,4.37
2018-09-08T22:39:24.032Z,4.73
2018-09-08T22:41:53.182Z,4.70
2018-09-08T22:44:22.621Z,4.30
2018-09-08T22:46:51.650Z,3.70
2018-09-08T22:49:20.711Z,3.47
2018-09-08T22:51:49.957Z,4.07
2018-09-08T22:54:19.145Z,3.40
2018-09-08T22:56:48.355Z,3.97
2018-09-08T22:59:17.331Z,3.40
2018-09-08T23:01:46.341Z,4.60
2018-09-08T23:04:22.522Z,4.20
2018-09-08T23:06:51.561Z,4.67
2018-09-08T23:09:20.724Z,6.50
2018-09-08T23:11:50.723Z,6.27
2018-09-08T23:14:19.834Z,4.63
2018-09-08T23:16:48.896Z,5.03
2018-09-08T23:19:19.153Z,5.40
2018-09-08T23:21:48.136Z,4.30
2018-09-08T23:24:17.242Z,4.73
2018-09-08T23:26:46.270Z,3.87
2018-09-08T23:29:15.253Z,3.70
2018-09-08T23:31:44.241Z,3.93
2018-09-08T23:34:13.267Z,3.53
2018-09-08T23:36:42.364Z,3.40
2018-09-08T23:39:11.397Z,3.17
2018-09-08T23:41:40.558Z,3.33
2018-09-08T23:44:09.588Z,3.30
2018-09-08T23:46:38.671Z,3.50
2018-09-08T23:49:08.252Z,3.63
2018-09-08T23:51:37.248Z,3.57
2018-09-08T23:54:06.348Z,3.60
2018-09-08T23:56:35.668Z,3.90
2018-09-08T23:59:04.898Z,3.37
